createdAt,value
2023-02-19T00:00:49.395Z,3.90
2023-02-19T00:02:53.117Z,3.58
2023-02-19T00:04:56.272Z,3.88
2023-02-19T00:06:59.232Z,5.53
2023-02-19T00:09:02.713Z,5.68
2023-02-19T00:11:07.821Z,5.65
2023-02-19T00:13:10.996Z,4.75
2023-02-19T00:15:15.490Z,5.75
2023-02-19T00:17:18.391Z,7.63
2023-02-19T00:19:21.918Z,14.10
2023-02-19T00:21:25.949Z,12.70
2023-02-19T00:23:28.995Z,10.98
2023-02-19T00:25:32.271Z,9.65
2023-02-19T00:27:35.393Z,6.40
2023-02-19T00:29:38.323Z,5.95
2023-02-19T00:31:42.968Z,4.47
2023-02-19T00:33:46.478Z,4.20
2023-02-19T00:35:49.442Z,3.78
2023-02-19T00:37:52.273Z,3.58
2023-02-19T00:39:55.234Z,3.13
2023-02-19T00:41:58.115Z,2.70
2023-02-19T00:44:02.923Z,2.60
2023-02-19T00:46:05.982Z,2.53
2023-02-19T00:48:11.074Z,2.50
2023-02-19T00:50:14.640Z,2.38
2023-02-19T00:52:17.676Z,2.05
2023-02-19T00:54:22.854Z,2.28
2023-02-19T00:56:25.875Z,2.65
2023-02-19T00:58:29.346Z,2.50
2023-02-19T01:00:33.895Z,2.67
2023-02-19T01:02:36.794Z,2.47
2023-02-19T01:04:41.335Z,2.47
2023-02-19T01:06:44.234Z,2.78
2023-02-19T01:08:47.561Z,1.88
2023-02-19T01:10:50.351Z,2.90
2023-02-19T01:12:53.293Z,2.58
2023-02-19T01:14:56.232Z,2.47
2023-02-19T01:16:59.510Z,2.30
2023-02-19T01:19:02.550Z,2.35
2023-02-19T01:21:09.580Z,2.13
2023-02-19T01:23:14.359Z,2.85
2023-02-19T01:25:17.499Z,3.47
2023-02-19T01:27:20.589Z,4.38
2023-02-19T01:29:23.549Z,3.85
2023-02-19T01:31:27.487Z,3.53
2023-02-19T01:33:31.069Z,3.63
2023-02-19T01:35:34.079Z,3.25
2023-02-19T01:37:38.833Z,3.38
2023-02-19T01:39:41.793Z,3.45
2023-02-19T01:41:44.782Z,2.95
2023-02-19T01:44:00.432Z,3.33
2023-02-19T01:46:04.752Z,3.00
2023-02-19T01:48:12.236Z,2.78
2023-02-19T01:50:15.432Z,3.00
2023-02-19T01:52:24.015Z,2.30
2023-02-19T01:54:31.901Z,2.17
2023-02-19T01:56:38.636Z,2.90
2023-02-19T01:58:42.273Z,2.78
2023-02-19T02:00:45.513Z,2.42
2023-02-19T02:02:53.245Z,2.60
2023-02-19T02:04:58.872Z,2.72
2023-02-19T02:07:24.195Z,2.60
2023-02-19T02:09:49.039Z,2.20
2023-02-19T02:11:53.052Z,3.38
2023-02-19T02:13:57.394Z,3.53
2023-02-19T02:16:09.198Z,3.55
2023-02-19T02:18:20.996Z,2.88
2023-02-19T02:20:36.011Z,2.80
2023-02-19T02:22:46.031Z,2.70
2023-02-19T02:25:21.994Z,2.17
2023-02-19T02:27:39.321Z,2.63
2023-02-19T02:30:20.193Z,2.50
2023-02-19T02:32:27.476Z,2.95
2023-02-19T02:34:35.736Z,3.67
2023-02-19T02:36:42.359Z,5.05
2023-02-19T02:38:49.796Z,4.20
2023-02-19T02:40:57.444Z,4.10
2023-02-19T02:43:01.488Z,4.35
2023-02-19T02:45:37.174Z,3.78
2023-02-19T02:47:51.366Z,3.45
2023-02-19T02:50:05.411Z,3.97
2023-02-19T02:52:29.615Z,3.70
2023-02-19T02:54:53.506Z,3.50
2023-02-19T02:56:59.766Z,3.30
2023-02-19T02:59:09.246Z,3.10
2023-02-19T03:01:37.274Z,3.28
2023-02-19T03:03:44.435Z,3.30
2023-02-19T03:05:53.299Z,3.50
2023-02-19T03:08:04.548Z,3.60
2023-02-19T03:10:13.954Z,4.07
2023-02-19T03:12:37.914Z,5.82
2023-02-19T03:15:05.315Z,4.40
2023-02-19T03:17:33.034Z,4.57
2023-02-19T03:19:43.473Z,4.00
2023-02-19T03:21:51.041Z,3.85
2023-02-19T03:24:14.753Z,4.10
2023-02-19T03:26:19.852Z,4.32
2023-02-19T03:28:49.323Z,4.40
2023-02-19T03:30:55.982Z,4.25
2023-02-19T03:33:02.914Z,4.10
2023-02-19T03:35:12.032Z,4.15
2023-02-19T03:37:19.711Z,4.13
2023-02-19T03:39:24.153Z,3.90
2023-02-19T03:41:35.073Z,4.00
2023-02-19T03:43:43.129Z,3.92
2023-02-19T03:45:54.226Z,4.20
2023-02-19T03:48:13.631Z,3.85
2023-02-19T03:50:21.990Z,5.05
2023-02-19T03:52:35.624Z,4.03
2023-02-19T03:54:45.073Z,4.20
2023-02-19T03:56:53.347Z,4.15
2023-02-19T03:59:02.636Z,3.65
2023-02-19T04:01:09.907Z,3.20
2023-02-19T04:03:18.716Z,3.13
2023-02-19T04:05:27.445Z,3.30
2023-02-19T04:07:33.140Z,2.80
2023-02-19T04:09:40.196Z,2.88
2023-02-19T04:11:48.918Z,3.00
2023-02-19T04:13:57.217Z,3.30
2023-02-19T04:16:07.349Z,3.30
2023-02-19T04:18:14.877Z,2.80
2023-02-19T04:20:19.280Z,3.00
2023-02-19T04:22:24.319Z,3.63
2023-02-19T04:24:31.569Z,4.00
2023-02-19T04:26:35.959Z,2.85
2023-02-19T04:28:40.388Z,3.03
2023-02-19T04:30:44.067Z,3.15
2023-02-19T04:32:47.020Z,2.88
2023-02-19T04:34:49.997Z,3.00
2023-02-19T04:36:52.852Z,2.90
2023-02-19T04:38:57.316Z,4.68
2023-02-19T04:41:00.282Z,3.78
2023-02-19T04:43:03.193Z,6.05
2023-02-19T04:45:06.674Z,7.32
2023-02-19T04:47:09.711Z,8.93
2023-02-19T04:49:12.621Z,11.55
2023-02-19T04:51:15.674Z,11.13
2023-02-19T04:53:18.600Z,13.55
2023-02-19T04:55:23.055Z,11.48
2023-02-19T04:57:25.914Z,12.02
2023-02-19T04:59:28.914Z,13.50
2023-02-19T05:01:31.851Z,12.07
2023-02-19T05:03:37.630Z,11.73
2023-02-19T05:05:40.771Z,11.45
2023-02-19T05:07:43.721Z,10.60
2023-02-19T05:09:46.514Z,10.52
2023-02-19T05:11:50.914Z,11.02
2023-02-19T05:13:56.510Z,10.90
2023-02-19T05:16:01.502Z,12.45
2023-02-19T05:18:04.818Z,14.52
2023-02-19T05:20:09.191Z,12.30
2023-02-19T05:22:12.070Z,9.88
2023-02-19T05:24:15.020Z,15.27
2023-02-19T05:26:20.780Z,17.05
2023-02-19T05:28:31.434Z,17.40
2023-02-19T05:30:35.701Z,18.17
2023-02-19T05:32:39.350Z,17.40
2023-02-19T05:34:42.277Z,15.65
2023-02-19T05:36:45.517Z,15.52
2023-02-19T05:38:48.711Z,16.42
2023-02-19T05:40:51.949Z,19.50
2023-02-19T05:42:54.845Z,20.65
2023-02-19T05:44:59.390Z,19.52
2023-02-19T05:47:02.356Z,19.98
2023-02-19T05:49:05.275Z,32.30
2023-02-19T05:51:11.036Z,30.45
2023-02-19T05:53:14.511Z,18.25
2023-02-19T05:55:17.671Z,14.57
2023-02-19T05:57:21.917Z,13.32
2023-02-19T05:59:26.404Z,14.70
2023-02-19T06:01:31.391Z,11.90
2023-02-19T06:03:34.267Z,13.18
2023-02-19T06:05:38.192Z,10.98
2023-02-19T06:07:42.150Z,16.17
2023-02-19T06:09:45.157Z,7.50
2023-02-19T06:11:48.030Z,11.05
2023-02-19T06:13:51.154Z,11.18
2023-02-19T06:15:54.188Z,8.80
2023-02-19T06:17:58.803Z,9.70
2023-02-19T06:20:01.993Z,11.40
2023-02-19T06:22:05.017Z,10.38
2023-02-19T06:24:09.714Z,10.65
2023-02-19T06:26:15.638Z,10.18
2023-02-19T06:28:18.552Z,9.88
2023-02-19T06:30:21.538Z,9.63
2023-02-19T06:32:24.972Z,8.88
2023-02-19T06:34:29.614Z,13.82
2023-02-19T06:36:32.512Z,14.35
2023-02-19T06:38:35.437Z,15.27
2023-02-19T06:40:38.315Z,15.85
2023-02-19T06:42:41.436Z,20.35
2023-02-19T06:44:44.477Z,22.15
2023-02-19T06:46:47.467Z,14.38
2023-02-19T06:48:50.565Z,11.52
2023-02-19T06:50:55.728Z,7.78
2023-02-19T06:52:58.536Z,8.75
2023-02-19T06:55:01.592Z,10.93
2023-02-19T06:57:04.673Z,7.95
2023-02-19T06:59:10.618Z,7.30
2023-02-19T07:01:13.806Z,8.13
2023-02-19T07:03:16.833Z,7.57
2023-02-19T07:05:19.755Z,5.47
2023-02-19T07:07:24.240Z,7.75
2023-02-19T07:09:28.843Z,7.35
2023-02-19T07:11:34.314Z,7.60
2023-02-19T07:13:37.351Z,7.38
2023-02-19T07:15:40.316Z,8.55
2023-02-19T07:17:43.311Z,8.45
2023-02-19T07:19:46.451Z,7.32
2023-02-19T07:21:49.295Z,6.40
2023-02-19T07:23:54.123Z,5.60
2023-02-19T07:25:57.691Z,5.80
2023-02-19T07:28:00.830Z,6.55
2023-02-19T07:30:04.434Z,5.60
2023-02-19T07:32:07.828Z,6.10
2023-02-19T07:34:10.830Z,6.68
2023-02-19T07:36:14.850Z,5.90
2023-02-19T07:38:18.673Z,5.97
2023-02-19T07:40:23.153Z,5.95
2023-02-19T07:42:25.953Z,5.15
2023-02-19T07:44:29.008Z,5.90
2023-02-19T07:46:32.483Z,6.45
2023-02-19T07:48:35.701Z,8.05
2023-02-19T07:50:38.995Z,10.40
2023-02-19T07:52:41.997Z,11.20
2023-02-19T07:54:44.916Z,9.35
2023-02-19T07:56:49.475Z,8.93
2023-02-19T07:58:52.475Z,8.73
2023-02-19T08:00:55.650Z,8.88
2023-02-19T08:03:01.637Z,8.48
2023-02-19T08:05:06.098Z,8.80
2023-02-19T08:07:08.956Z,7.72
2023-02-19T08:09:12.323Z,8.02
2023-02-19T08:11:33.880Z,9.68
2023-02-19T08:13:38.583Z,8.48
2023-02-19T08:15:41.535Z,8.10
2023-02-19T08:17:44.475Z,8.68
2023-02-19T08:19:47.316Z,12.27
2023-02-19T08:21:51.051Z,11.32
2023-02-19T08:23:53.913Z,11.02
2023-02-19T08:25:59.009Z,10.18
2023-02-19T08:28:02.239Z,10.73
2023-02-19T08:30:09.301Z,10.50
2023-02-19T08:32:12.271Z,11.02
2023-02-19T08:34:15.353Z,11.40
2023-02-19T08:36:18.368Z,11.25
2023-02-19T08:38:21.474Z,12.95
2023-02-19T08:40:24.677Z,14.52
2023-02-19T08:42:29.916Z,13.52
2023-02-19T08:44:33.609Z,11.23
2023-02-19T08:46:38.474Z,9.45
2023-02-19T08:48:42.034Z,8.20
2023-02-19T08:50:44.953Z,8.18
2023-02-19T08:52:47.832Z,7.93
2023-02-19T08:54:50.750Z,8.30
2023-02-19T08:56:53.910Z,8.23
2023-02-19T08:58:56.991Z,6.05
2023-02-19T09:01:00.003Z,5.05
2023-02-19T09:03:04.619Z,4.57
2023-02-19T09:05:07.925Z,4.43
2023-02-19T09:07:12.741Z,4.07
2023-02-19T09:09:15.590Z,4.63
2023-02-19T09:11:18.611Z,4.18
2023-02-19T09:13:21.447Z,3.53
2023-02-19T09:15:24.429Z,3.42
2023-02-19T09:17:28.080Z,3.58
2023-02-19T09:19:33.032Z,2.80
2023-02-19T09:21:35.911Z,2.78
2023-02-19T09:23:38.914Z,2.85
2023-02-19T09:25:41.793Z,2.40
2023-02-19T09:27:44.834Z,2.45
2023-02-19T09:29:47.953Z,2.20
2023-02-19T09:31:50.929Z,2.10
2023-02-19T09:33:53.943Z,1.70
2023-02-19T09:36:01.555Z,1.90
2023-02-19T09:38:04.476Z,1.85
2023-02-19T09:40:08.318Z,1.55
2023-02-19T09:42:15.890Z,2.08
2023-02-19T09:44:27.996Z,2.25
2023-02-19T09:46:34.356Z,2.40
2023-02-19T09:48:37.454Z,2.50
2023-02-19T09:50:44.618Z,3.03
2023-02-19T09:52:53.104Z,2.35
2023-02-19T09:54:59.813Z,2.75
2023-02-19T09:57:04.101Z,1.83
2023-02-19T09:59:11.992Z,2.03
2023-02-19T10:01:15.751Z,2.00
2023-02-19T10:03:25.991Z,1.42
2023-02-19T10:05:29.590Z,1.80
2023-02-19T10:07:39.717Z,1.75
2023-02-19T10:09:48.909Z,1.30
2023-02-19T10:11:54.383Z,1.17
2023-02-19T10:14:09.564Z,1.40
2023-02-19T10:16:17.849Z,1.58
2023-02-19T10:18:23.522Z,2.20
2023-02-19T10:22:33.009Z,2.53
2023-02-19T10:24:38.317Z,2.60
2023-02-19T10:26:43.190Z,2.60
2023-02-19T10:28:46.172Z,2.33
2023-02-19T10:30:54.098Z,2.50
2023-02-19T10:33:03.115Z,2.42
2023-02-19T10:35:12.073Z,2.10
2023-02-19T10:37:18.405Z,2.10
2023-02-19T10:39:42.392Z,2.38
2023-02-19T10:41:46.791Z,1.90
2023-02-19T10:43:54.772Z,2.40
2023-02-19T10:45:59.111Z,2.20
2023-02-19T10:48:03.322Z,1.95
2023-02-19T10:50:09.244Z,1.20
2023-02-19T10:52:18.102Z,1.00
2023-02-19T10:54:25.893Z,1.00
2023-02-19T10:56:31.752Z,0.90
2023-02-19T10:58:38.111Z,1.48
2023-02-19T11:00:41.274Z,1.50
2023-02-19T11:02:45.097Z,1.77
2023-02-19T11:05:05.556Z,1.33
2023-02-19T11:07:10.752Z,1.33
2023-02-19T11:09:26.595Z,1.48
2023-02-19T11:11:34.170Z,1.20
2023-02-19T11:13:40.069Z,1.30
2023-02-19T11:15:44.630Z,0.93
2023-02-19T11:17:55.385Z,0.90
2023-02-19T11:20:00.798Z,1.17
2023-02-19T11:22:19.271Z,1.45
2023-02-19T11:24:34.436Z,1.00
2023-02-19T11:26:38.592Z,1.45
2023-02-19T11:28:44.592Z,1.35
2023-02-19T11:30:48.686Z,1.30
2023-02-19T11:32:51.581Z,1.23
2023-02-19T11:35:15.073Z,1.10
2023-02-19T11:37:21.252Z,1.25
2023-02-19T11:39:31.358Z,1.10
2023-02-19T11:41:56.953Z,1.67
2023-02-19T11:44:17.074Z,1.20
2023-02-19T11:46:28.111Z,1.20
2023-02-19T11:48:42.564Z,0.90
2023-02-19T11:50:59.555Z,1.40
2023-02-19T11:53:17.152Z,1.20
2023-02-19T11:55:32.152Z,1.40
2023-02-19T11:57:42.493Z,1.65
2023-02-19T11:59:54.791Z,1.63
2023-02-19T12:02:15.530Z,0.70
2023-02-19T12:05:08.518Z,1.65
2023-02-19T12:07:23.810Z,1.55
2023-02-19T12:09:37.470Z,1.93
2023-02-19T12:12:00.512Z,1.48
2023-02-19T12:14:20.957Z,0.70
2023-02-19T12:16:32.068Z,1.33
2023-02-19T12:19:02.588Z,1.00
2023-02-19T12:21:20.604Z,1.20
2023-02-19T12:24:04.848Z,1.20
2023-02-19T12:26:20.708Z,1.20
2023-02-19T12:28:56.547Z,1.38
2023-02-19T12:31:19.885Z,1.10
2023-02-19T12:33:54.040Z,2.00
2023-02-19T12:36:06.359Z,1.35
2023-02-19T12:38:22.686Z,1.42
2023-02-19T12:40:38.350Z,1.60
2023-02-19T12:42:52.406Z,1.60
2023-02-19T12:45:00.673Z,1.80
2023-02-19T12:47:07.321Z,1.77
2023-02-19T12:49:15.711Z,1.90
2023-02-19T12:51:24.393Z,3.05
2023-02-19T12:53:40.072Z,5.43
2023-02-19T12:55:46.353Z,4.68
2023-02-19T12:57:51.635Z,3.38
2023-02-19T13:00:00.596Z,3.95
2023-02-19T13:02:12.617Z,4.30
2023-02-19T13:04:26.483Z,5.22
2023-02-19T13:06:36.856Z,1.23
2023-02-19T13:08:57.871Z,2.88
2023-02-19T13:11:15.606Z,1.92
2023-02-19T13:13:24.801Z,0.82
2023-02-19T13:15:34.750Z,2.50
2023-02-19T13:17:43.077Z,2.50
2023-02-19T13:19:50.760Z,1.98
2023-02-19T13:22:21.998Z,2.00
2023-02-19T13:24:28.358Z,2.13
2023-02-19T13:26:46.157Z,1.75
2023-02-19T13:29:07.199Z,2.05
2023-02-19T13:31:25.416Z,2.10
2023-02-19T13:33:40.436Z,2.17
2023-02-19T13:36:13.396Z,1.90
2023-02-19T13:38:17.098Z,2.00
2023-02-19T13:40:31.415Z,2.35
2023-02-19T13:42:36.565Z,2.22
2023-02-19T13:44:42.156Z,2.03
2023-02-19T13:46:47.915Z,1.60
2023-02-19T13:51:51.463Z,2.80
2023-02-19T13:54:00.113Z,2.55
2023-02-19T13:56:03.240Z,3.83
2023-02-19T13:58:51.834Z,3.78
2023-02-19T14:00:55.414Z,3.10
2023-02-19T14:03:28.694Z,3.10
2023-02-19T14:06:00.474Z,2.53
2023-02-19T14:08:05.035Z,2.80
2023-02-19T14:10:13.192Z,1.92
2023-02-19T14:12:20.800Z,2.08
2023-02-19T14:14:29.164Z,2.55
2023-02-19T14:16:57.032Z,5.22
2023-02-19T14:19:00.110Z,5.80
2023-02-19T14:21:07.837Z,6.60
2023-02-19T14:23:17.480Z,10.18
2023-02-19T14:25:30.190Z,4.68
2023-02-19T14:27:33.153Z,3.85
2023-02-19T14:29:36.047Z,7.35
2023-02-19T14:31:39.389Z,5.25
2023-02-19T14:33:47.152Z,4.38
2023-02-19T14:35:53.921Z,4.53
2023-02-19T14:37:57.766Z,3.97
2023-02-19T14:40:03.228Z,5.60
2023-02-19T14:42:08.874Z,3.60
2023-02-19T14:48:29.830Z,2.35
2023-02-19T14:50:33.590Z,2.65
2023-02-19T14:52:41.302Z,3.05
2023-02-19T14:54:49.390Z,2.70
2023-02-19T14:56:54.846Z,2.50
2023-02-19T15:01:26.566Z,2.78
2023-02-19T15:03:34.721Z,1.52
2023-02-19T15:05:38.112Z,2.45
2023-02-19T15:07:42.559Z,2.35
2023-02-19T15:09:49.470Z,2.05
2023-02-19T15:11:55.351Z,2.75
2023-02-19T15:14:01.337Z,2.60
2023-02-19T15:16:05.275Z,2.50
2023-02-19T15:18:08.431Z,2.70
2023-02-19T15:20:17.402Z,2.65
2023-02-19T15:22:22.750Z,2.58
2023-02-19T15:24:25.895Z,2.45
2023-02-19T15:26:35.004Z,2.50
2023-02-19T15:28:39.555Z,1.60
2023-02-19T15:30:42.434Z,2.42
2023-02-19T15:32:52.785Z,2.97
2023-02-19T15:34:57.114Z,2.70
2023-02-19T15:37:03.012Z,2.78
2023-02-19T15:39:06.195Z,2.78
2023-02-19T15:41:20.144Z,2.67
2023-02-19T15:43:28.122Z,2.78
2023-02-19T15:45:40.226Z,3.53
2023-02-19T15:47:49.512Z,3.80
2023-02-19T15:49:57.801Z,4.18
2023-02-19T15:52:06.095Z,4.47
2023-02-19T15:54:18.753Z,5.47
2023-02-19T15:56:29.743Z,4.35
2023-02-19T15:58:38.553Z,3.85
2023-02-19T16:00:48.475Z,6.97
2023-02-19T16:02:51.420Z,10.40
2023-02-19T16:04:54.323Z,11.30
2023-02-19T16:06:58.882Z,13.23
2023-02-19T16:09:06.042Z,7.68
2023-02-19T16:11:30.159Z,9.02
2023-02-19T16:13:35.402Z,8.25
2023-02-19T16:15:40.312Z,6.47
2023-02-19T16:17:45.774Z,6.85
2023-02-19T16:19:54.843Z,7.50
2023-02-19T16:21:59.113Z,7.15
2023-02-19T16:24:11.732Z,6.72
2023-02-19T16:26:14.972Z,7.82
2023-02-19T16:28:24.388Z,7.30
2023-02-19T16:30:30.546Z,6.57
2023-02-19T16:32:33.648Z,6.60
2023-02-19T16:34:42.808Z,7.03
2023-02-19T16:36:48.675Z,7.65
2023-02-19T16:39:17.464Z,7.78
2023-02-19T16:41:20.688Z,6.30
2023-02-19T16:43:38.219Z,3.97
2023-02-19T16:45:42.229Z,4.53
2023-02-19T16:47:48.661Z,3.65
2023-02-19T16:49:53.437Z,4.32
2023-02-19T16:51:56.755Z,4.50
2023-02-19T16:53:59.681Z,3.88
2023-02-19T16:56:02.778Z,3.03
2023-02-19T16:58:05.617Z,3.55
2023-02-19T17:00:09.438Z,4.00
2023-02-19T17:02:19.676Z,5.38
2023-02-19T17:04:22.644Z,7.97
2023-02-19T17:06:27.536Z,7.20
2023-02-19T17:08:34.406Z,7.20
2023-02-19T17:10:37.275Z,5.07
2023-02-19T17:12:40.055Z,7.25
2023-02-19T17:14:43.198Z,8.00
2023-02-19T17:16:46.295Z,6.55
2023-02-19T17:18:49.486Z,6.65
2023-02-19T17:20:57.583Z,8.23
2023-02-19T17:23:02.111Z,9.02
2023-02-19T17:25:05.574Z,11.63
2023-02-19T17:27:11.673Z,17.85
2023-02-19T17:29:15.761Z,24.83
2023-02-19T17:31:19.012Z,18.67
2023-02-19T17:33:21.952Z,16.33
2023-02-19T17:35:25.502Z,22.05
2023-02-19T17:37:28.353Z,22.92
2023-02-19T17:39:32.841Z,18.98
2023-02-19T17:41:35.964Z,16.20
2023-02-19T17:43:38.754Z,14.82
2023-02-19T17:45:41.648Z,11.77
2023-02-19T17:47:44.511Z,10.10
2023-02-19T17:49:47.308Z,9.02
2023-02-19T17:51:50.118Z,9.73
2023-02-19T17:53:53.055Z,10.32
2023-02-19T17:55:57.351Z,11.48
2023-02-19T17:58:00.789Z,14.10
2023-02-19T18:00:04.842Z,19.10
2023-02-19T18:02:15.280Z,19.98
2023-02-19T18:04:18.198Z,19.83
2023-02-19T18:06:21.172Z,16.27
2023-02-19T18:08:24.071Z,11.32
2023-02-19T18:10:27.586Z,14.45
2023-02-19T18:12:32.074Z,16.30
2023-02-19T18:14:34.855Z,14.18
2023-02-19T18:16:37.832Z,10.45
2023-02-19T18:18:41.704Z,9.13
2023-02-19T18:20:44.713Z,9.20
2023-02-19T18:22:47.603Z,9.57
2023-02-19T18:24:52.966Z,11.63
2023-02-19T18:26:55.870Z,18.83
2023-02-19T18:29:00.451Z,23.13
2023-02-19T18:31:03.540Z,21.05
2023-02-19T18:33:06.952Z,17.40
2023-02-19T18:35:10.271Z,17.48
2023-02-19T18:37:13.112Z,18.58
2023-02-19T18:39:16.431Z,18.02
2023-02-19T18:41:21.270Z,22.70
2023-02-19T18:43:24.512Z,24.48
2023-02-19T18:45:29.952Z,25.63
2023-02-19T18:47:33.032Z,24.65
2023-02-19T18:49:35.989Z,26.52
2023-02-19T18:51:38.803Z,32.00
2023-02-19T18:53:43.037Z,33.55
2023-02-19T18:55:45.812Z,86.40
2023-02-19T18:57:49.609Z,341.65
2023-02-19T18:59:52.565Z,368.00
2023-02-19T19:01:57.202Z,215.38
2023-02-19T19:06:03.836Z,72.70
2023-02-19T19:08:06.673Z,106.90
2023-02-19T19:10:10.435Z,119.78
2023-02-19T19:12:13.274Z,62.78
2023-02-19T19:14:16.168Z,30.15
2023-02-19T19:16:19.038Z,16.05
2023-02-19T19:18:23.577Z,25.75
2023-02-19T19:20:26.583Z,14.80
2023-02-19T19:22:29.481Z,20.88
2023-02-19T19:24:32.421Z,26.08
2023-02-19T19:26:35.751Z,20.75
2023-02-19T19:28:44.728Z,28.77
2023-02-19T19:30:47.704Z,22.42
2023-02-19T19:32:51.871Z,28.92
2023-02-19T19:34:58.088Z,29.73
2023-02-19T19:37:01.199Z,25.80
2023-02-19T19:39:04.723Z,15.75
2023-02-19T19:41:07.957Z,20.15
2023-02-19T19:43:10.996Z,23.80
2023-02-19T19:45:14.836Z,18.45
2023-02-19T19:47:18.040Z,49.53
2023-02-19T19:49:22.639Z,23.63
2023-02-19T19:51:31.678Z,45.23
2023-02-19T19:53:34.599Z,40.95
2023-02-19T19:55:37.716Z,44.08
2023-02-19T19:57:40.983Z,30.27
2023-02-19T19:59:44.074Z,36.20
2023-02-19T20:01:52.583Z,37.85
2023-02-19T20:03:55.759Z,33.45
2023-02-19T20:05:58.875Z,32.88
2023-02-19T20:08:03.490Z,29.45
2023-02-19T20:10:07.330Z,26.88
2023-02-19T20:12:11.231Z,27.77
2023-02-19T20:14:14.795Z,33.00
2023-02-19T20:16:23.435Z,31.73
2023-02-19T20:18:26.954Z,40.08
2023-02-19T20:20:30.914Z,35.00
2023-02-19T20:22:33.914Z,32.80
2023-02-19T20:24:38.485Z,32.67
2023-02-19T20:26:41.455Z,28.30
2023-02-19T20:28:46.794Z,21.98
2023-02-19T20:30:50.143Z,19.63
2023-02-19T20:32:53.922Z,16.77
2023-02-19T20:34:56.834Z,16.23
2023-02-19T20:37:00.001Z,16.33
2023-02-19T20:39:02.915Z,18.98
2023-02-19T20:41:07.474Z,16.63
2023-02-19T20:43:10.393Z,13.93
2023-02-19T20:45:17.028Z,15.40
2023-02-19T20:47:19.843Z,16.42
2023-02-19T20:49:25.633Z,16.60
2023-02-19T20:51:28.599Z,17.23
2023-02-19T20:53:32.360Z,20.38
2023-02-19T20:55:35.474Z,14.80
2023-02-19T20:57:40.095Z,12.75
2023-02-19T20:59:44.432Z,12.40
2023-02-19T21:01:47.521Z,12.98
2023-02-19T21:03:50.433Z,12.02
2023-02-19T21:05:53.336Z,14.13
2023-02-19T21:07:56.164Z,14.93
2023-02-19T21:09:59.193Z,16.83
2023-02-19T21:12:02.158Z,16.73
2023-02-19T21:14:06.675Z,13.95
2023-02-19T21:16:10.285Z,12.63
2023-02-19T21:18:13.676Z,11.82
2023-02-19T21:20:20.434Z,11.60
2023-02-19T21:22:23.674Z,9.90
2023-02-19T21:24:26.746Z,11.13
2023-02-19T21:26:35.355Z,10.75
2023-02-19T21:28:38.834Z,10.27
2023-02-19T21:30:43.326Z,10.70
2023-02-19T21:32:46.269Z,11.30
2023-02-19T21:34:49.358Z,12.82
2023-02-19T21:36:52.520Z,15.80
2023-02-19T21:38:55.477Z,15.32
2023-02-19T21:40:58.474Z,14.38
2023-02-19T21:43:02.114Z,12.05
2023-02-19T21:45:05.706Z,12.85
2023-02-19T21:47:11.717Z,12.23
2023-02-19T21:49:14.529Z,12.32
2023-02-19T21:51:18.358Z,11.50
2023-02-19T21:53:21.353Z,10.48
2023-02-19T21:55:24.316Z,11.20
2023-02-19T21:57:27.324Z,11.30
2023-02-19T21:59:30.288Z,14.05
2023-02-19T22:01:35.711Z,14.88
2023-02-19T22:03:40.131Z,14.15
2023-02-19T22:05:43.230Z,12.25
2023-02-19T22:07:47.914Z,12.23
2023-02-19T22:09:51.593Z,11.02
2023-02-19T22:11:54.432Z,10.80
2023-02-19T22:13:57.289Z,10.45
2023-02-19T22:16:00.316Z,10.25
2023-02-19T22:18:03.535Z,9.80
2023-02-19T22:20:08.910Z,9.32
2023-02-19T22:22:11.807Z,10.35
2023-02-19T22:24:17.910Z,9.65
2023-02-19T22:26:22.752Z,8.60
2023-02-19T22:28:25.729Z,8.55
2023-02-19T22:30:28.672Z,9.38
2023-02-19T22:32:32.023Z,9.77
2023-02-19T22:34:39.671Z,10.80
2023-02-19T22:36:44.725Z,11.27
2023-02-19T22:38:48.082Z,11.55
2023-02-19T22:40:51.029Z,11.65
2023-02-19T22:42:53.949Z,11.50
2023-02-19T22:44:56.949Z,12.27
2023-02-19T22:47:00.218Z,11.45
2023-02-19T22:49:05.036Z,11.52
2023-02-19T22:51:13.379Z,11.88
2023-02-19T22:53:17.784Z,12.13
2023-02-19T22:55:20.809Z,12.35
2023-02-19T22:57:23.749Z,12.43
2023-02-19T22:59:26.670Z,11.40
2023-02-19T23:01:29.644Z,11.65
2023-02-19T23:03:32.634Z,9.93
2023-02-19T23:05:35.673Z,10.85
2023-02-19T23:07:38.672Z,9.77
2023-02-19T23:09:43.294Z,9.25
2023-02-19T23:11:46.596Z,10.45
2023-02-19T23:13:49.797Z,9.48
2023-02-19T23:15:52.716Z,9.30
2023-02-19T23:17:55.726Z,9.50
2023-02-19T23:19:58.528Z,9.82
2023-02-19T23:22:01.596Z,9.25
2023-02-19T23:24:05.956Z,9.05
2023-02-19T23:26:11.225Z,9.80
2023-02-19T23:28:14.390Z,9.32
2023-02-19T23:30:18.097Z,9.30
2023-02-19T23:32:21.437Z,10.68
2023-02-19T23:34:24.844Z,10.07
2023-02-19T23:36:27.715Z,10.65
2023-02-19T23:38:30.721Z,12.40
2023-02-19T23:40:33.595Z,10.82
2023-02-19T23:42:38.116Z,10.55
2023-02-19T23:44:41.003Z,9.70
2023-02-19T23:46:44.075Z,8.52
2023-02-19T23:48:47.024Z,7.80
2023-02-19T23:50:50.151Z,7.75
2023-02-19T23:52:52.929Z,8.70
2023-02-19T23:54:56.954Z,7.18
2023-02-19T23:56:59.957Z,7.50
2023-02-19T23:59:04.716Z,6.75
